Time;durP1;ratioP1;P1;durP2;ratioP2;P2;SDS_P1;SDS_P2;PMS_P1;PMS_P2;Temp;Humidity;BMP_temperature;BMP_pressure;BME280_temperature;BME280_humidity;BME280_pressure;Samples;Min_cycle;Max_cycle;Signal;HPM_P1;HPM_P2
2023/09/22 00:00:14;;;;;;;6.32;1.85;;;19.80;99.90;;;;;;5076719;28;20140;-78
2023/09/22 00:02:43;;;;;;;4.88;1.60;;;19.80;99.90;;;;;;5081084;28;20139;-78
2023/09/22 00:05:13;;;;;;;6.28;1.83;;;19.80;99.90;;;;;;5071337;28;22564;-79
2023/09/22 00:07:42;;;;;;;6.60;1.70;;;19.80;99.90;;;;;;5088647;28;20504;-79
2023/09/22 00:10:10;;;;;;;11.82;2.13;;;19.80;99.90;;;;;;5071911;28;20478;-78
2023/09/22 00:12:37;;;;;;;4.97;1.92;;;19.70;99.90;;;;;;5065859;28;20512;-79
2023/09/22 00:15:05;;;;;;;5.70;1.77;;;19.70;99.90;;;;;;5074528;28;20052;-78
2023/09/22 00:17:35;;;;;;;7.97;2.05;;;19.70;99.90;;;;;;5064263;28;20106;-78
2023/09/22 00:20:07;;;;;;;5.32;1.35;;;19.70;99.90;;;;;;5072009;28;22631;-81
2023/09/22 00:22:35;;;;;;;4.95;1.92;;;19.70;99.90;;;;;;5077519;28;20469;-78
2023/09/22 00:25:02;;;;;;;7.65;1.73;;;19.70;99.90;;;;;;5078393;28;20044;-78
2023/09/22 00:27:29;;;;;;;8.52;2.38;;;19.60;99.90;;;;;;5059614;28;20040;-79
2023/09/22 00:29:57;;;;;;;4.25;1.30;;;19.60;99.90;;;;;;5086803;27;20056;-81
2023/09/22 00:32:24;;;;;;;9.73;2.42;;;19.60;99.90;;;;;;5056171;28;20063;-79
2023/09/22 00:34:52;;;;;;;6.05;1.80;;;19.60;99.90;;;;;;5061489;28;20048;-78
2023/09/22 00:37:19;;;;;;;5.63;1.65;;;19.60;99.90;;;;;;5077337;28;20051;-78
2023/09/22 00:39:46;;;;;;;5.47;2.03;;;19.60;99.90;;;;;;5060318;28;20055;-79
2023/09/22 00:42:14;;;;;;;7.15;1.35;;;19.50;99.90;;;;;;5061740;28;22548;-78
2023/09/22 00:44:41;;;;;;;3.25;1.65;;;19.50;99.90;;;;;;5088264;27;20050;-79
2023/09/22 00:47:09;;;;;;;4.72;1.70;;;19.50;99.90;;;;;;5068341;28;20436;-78
2023/09/22 00:49:37;;;;;;;7.72;1.98;;;19.50;99.90;;;;;;5064027;28;20056;-78
2023/09/22 00:52:05;;;;;;;4.03;1.92;;;19.50;99.90;;;;;;5090511;27;20087;-78
2023/09/22 00:54:33;;;;;;;4.43;1.67;;;19.50;99.90;;;;;;5070095;28;21052;-78
2023/09/22 00:57:04;;;;;;;7.07;2.90;;;19.40;99.90;;;;;;5062313;28;20047;-78
2023/09/22 00:59:32;;;;;;;6.15;2.50;;;19.40;99.90;;;;;;5082822;28;20510;-78
2023/09/22 01:02:00;;;;;;;5.45;1.75;;;19.40;99.90;;;;;;5086152;28;20049;-78
2023/09/22 01:04:28;;;;;;;6.85;2.00;;;19.40;99.90;;;;;;5071698;28;20636;-78
2023/09/22 01:06:56;;;;;;;9.88;1.75;;;19.40;99.90;;;;;;5060060;28;20049;-79
2023/09/22 01:09:24;;;;;;;6.35;1.80;;;19.30;99.90;;;;;;5070390;28;20498;-78
2023/09/22 01:11:52;;;;;;;8.52;2.92;;;19.40;99.90;;;;;;5078542;28;20044;-78
2023/09/22 01:14:19;;;;;;;5.88;1.98;;;19.30;99.90;;;;;;5066588;28;20058;-78
2023/09/22 01:16:47;;;;;;;5.07;2.38;;;19.30;99.90;;;;;;5071908;28;20048;-78
2023/09/22 01:19:16;;;;;;;5.35;2.60;;;19.40;99.90;;;;;;5086055;28;20442;-79
2023/09/22 01:21:44;;;;;;;6.63;2.35;;;19.30;99.90;;;;;;5067792;28;20053;-78
2023/09/22 01:24:12;;;;;;;7.43;2.17;;;19.30;99.90;;;;;;5073030;28;20048;-78
2023/09/22 01:26:39;;;;;;;7.47;2.90;;;19.30;99.90;;;;;;5088169;28;20047;-78
2023/09/22 01:29:07;;;;;;;4.47;1.85;;;19.20;99.90;;;;;;5086561;28;20056;-78
2023/09/22 01:31:36;;;;;;;6.18;2.60;;;19.20;99.90;;;;;;5074123;28;20495;-78
2023/09/22 01:34:03;;;;;;;7.30;2.90;;;19.20;99.90;;;;;;5084563;28;20059;-78
2023/09/22 01:36:31;;;;;;;5.05;1.67;;;19.20;99.90;;;;;;5075241;28;20040;-78
2023/09/22 01:39:00;;;;;;;6.72;2.08;;;19.20;99.90;;;;;;5083530;28;20375;-78
2023/09/22 01:41:28;;;;;;;7.25;1.92;;;19.10;99.90;;;;;;5065654;28;20053;-78
2023/09/22 01:43:56;;;;;;;5.93;1.90;;;19.10;99.90;;;;;;5088345;28;20044;-78
2023/09/22 01:46:23;;;;;;;7.15;2.28;;;19.10;99.90;;;;;;5078521;28;20040;-78
2023/09/22 01:48:50;;;;;;;6.32;1.77;;;19.00;99.90;;;;;;5069695;28;20076;-78
2023/09/22 01:51:18;;;;;;;4.28;1.80;;;19.10;99.90;;;;;;5069871;28;20044;-78
2023/09/22 01:53:45;;;;;;;5.03;2.17;;;19.00;99.90;;;;;;5082073;28;20177;-78
2023/09/22 01:56:12;;;;;;;7.38;1.85;;;19.00;99.90;;;;;;5068011;28;20080;-78
2023/09/22 01:58:40;;;;;;;3.75;1.73;;;19.00;99.90;;;;;;5074990;28;20048;-78
2023/09/22 02:01:07;;;;;;;6.30;2.35;;;19.00;99.90;;;;;;5072806;28;20082;-78
2023/09/22 02:03:34;;;;;;;7.05;2.72;;;19.00;99.90;;;;;;5079099;28;20047;-78
2023/09/22 02:06:04;;;;;;;7.22;2.15;;;19.00;99.90;;;;;;5083766;28;20135;-78
2023/09/22 02:08:31;;;;;;;4.68;1.92;;;19.00;99.90;;;;;;5086296;28;20094;-80
2023/09/22 02:10:59;;;;;;;8.13;2.60;;;18.90;99.90;;;;;;5072789;28;20410;-78
2023/09/22 02:13:26;;;;;;;4.97;1.92;;;19.00;99.90;;;;;;5075248;28;20058;-78
2023/09/22 02:15:53;;;;;;;8.68;2.70;;;19.00;99.90;;;;;;5092589;28;20154;-78
2023/09/22 02:18:23;;;;;;;4.93;1.45;;;18.90;99.90;;;;;;5074297;28;20036;-78
2023/09/22 02:20:52;;;;;;;4.72;2.33;;;19.00;99.90;;;;;;5093991;28;21061;-78
2023/09/22 02:23:21;;;;;;;4.70;2.22;;;19.00;99.90;;;;;;5089611;28;20868;-78
2023/09/22 02:25:48;;;;;;;4.50;1.95;;;19.00;99.90;;;;;;5072796;28;20496;-78
2023/09/22 02:28:15;;;;;;;9.35;3.13;;;18.90;99.90;;;;;;5090148;28;20126;-79
2023/09/22 02:30:42;;;;;;;8.45;2.40;;;18.90;99.90;;;;;;5076473;28;20040;-78
2023/09/22 02:33:10;;;;;;;4.70;1.73;;;18.90;99.90;;;;;;5081984;28;20036;-78
2023/09/22 02:35:41;;;;;;;4.57;2.20;;;18.90;99.90;;;;;;5074399;28;20059;-79
2023/09/22 02:38:08;;;;;;;6.65;2.33;;;18.90;99.90;;;;;;5065378;28;20052;-78
2023/09/22 02:40:35;;;;;;;8.88;2.38;;;18.90;99.90;;;;;;5073311;28;20123;-78
2023/09/22 02:43:03;;;;;;;7.68;2.60;;;18.90;99.90;;;;;;5097775;28;20082;-78
2023/09/22 02:45:30;;;;;;;6.22;2.20;;;18.90;99.90;;;;;;5083346;28;20048;-78
2023/09/22 02:47:58;;;;;;;4.68;1.80;;;18.90;99.90;;;;;;5075015;28;20063;-78
2023/09/22 02:50:25;;;;;;;4.75;2.08;;;18.80;99.90;;;;;;5064685;28;20040;-78
2023/09/22 02:52:52;;;;;;;6.10;2.22;;;18.80;99.90;;;;;;5075399;28;20044;-78
2023/09/22 02:55:19;;;;;;;4.82;2.20;;;18.70;99.90;;;;;;5066249;28;20529;-78
2023/09/22 02:57:47;;;;;;;8.45;2.60;;;18.80;99.90;;;;;;5064961;28;20057;-78
2023/09/22 03:00:17;;;;;;;7.65;2.42;;;18.80;99.90;;;;;;5075861;28;20060;-79
2023/09/22 03:02:46;;;;;;;5.25;2.25;;;18.80;99.90;;;;;;5073623;28;20460;-78
2023/09/22 03:05:16;;;;;;;9.27;2.20;;;18.80;99.90;;;;;;5085228;28;20132;-78
2023/09/22 03:07:48;;;;;;;4.17;2.10;;;18.80;99.90;;;;;;5079125;28;20060;-78
2023/09/22 03:10:15;;;;;;;6.97;2.17;;;18.80;99.90;;;;;;5065430;28;20052;-78
2023/09/22 03:12:43;;;;;;;8.90;2.40;;;18.80;99.90;;;;;;5075751;28;20051;-80
2023/09/22 03:15:12;;;;;;;5.63;2.15;;;18.80;99.90;;;;;;5091189;27;20511;-78
2023/09/22 03:17:41;;;;;;;6.82;2.53;;;18.80;99.90;;;;;;5074653;28;20036;-78
2023/09/22 03:20:12;;;;;;;6.22;2.65;;;18.70;99.90;;;;;;5082424;28;20044;-78
2023/09/22 03:22:45;;;;;;;4.78;2.80;;;18.70;99.90;;;;;;5070048;28;20121;-78
2023/09/22 03:25:14;;;;;;;10.18;2.90;;;18.70;99.90;;;;;;5087859;28;20048;-78
2023/09/22 03:27:43;;;;;;;7.40;2.45;;;18.70;99.90;;;;;;5076343;28;20052;-78
2023/09/22 03:30:13;;;;;;;8.85;2.78;;;18.70;99.90;;;;;;5084632;28;20037;-78
2023/09/22 03:32:42;;;;;;;7.45;3.72;;;18.70;99.90;;;;;;5082743;28;20082;-78
2023/09/22 03:35:13;;;;;;;6.68;2.80;;;18.70;99.90;;;;;;5077498;28;20086;-78
2023/09/22 03:37:41;;;;;;;5.82;2.58;;;18.70;99.90;;;;;;5066471;28;20072;-78
2023/09/22 03:40:20;;;;;;;10.00;3.88;;;18.70;99.90;;;;;;5088590;28;20055;-78
2023/09/22 03:42:47;;;;;;;7.43;3.53;;;18.70;99.90;;;;;;5073201;28;20044;-78
2023/09/22 03:45:15;;;;;;;5.22;2.65;;;18.70;99.90;;;;;;5072779;28;20044;-78
2023/09/22 03:47:42;;;;;;;8.93;3.05;;;18.70;99.90;;;;;;5067246;28;20575;-78
2023/09/22 03:50:10;;;;;;;7.25;3.47;;;18.60;99.90;;;;;;5078941;28;22643;-78
2023/09/22 03:52:40;;;;;;;9.02;3.30;;;18.60;99.90;;;;;;5081160;28;20505;-78
2023/09/22 03:55:07;;;;;;;8.93;3.20;;;18.60;99.90;;;;;;5080968;28;20092;-78
2023/09/22 03:57:34;;;;;;;10.98;4.15;;;18.60;99.90;;;;;;5089327;27;20052;-78
2023/09/22 04:00:15;;;;;;;9.80;3.35;;;18.60;99.90;;;;;;5061614;28;20045;-78
2023/09/22 04:02:43;;;;;;;8.93;3.50;;;18.60;99.90;;;;;;5073040;28;20040;-78
2023/09/22 04:05:13;;;;;;;8.57;4.85;;;18.60;99.90;;;;;;5087670;28;20391;-78
2023/09/22 04:07:41;;;;;;;10.40;4.20;;;18.60;99.90;;;;;;5076702;28;21023;-78
2023/09/22 04:10:10;;;;;;;11.40;3.75;;;18.60;99.90;;;;;;5081823;28;20059;-78
2023/09/22 04:12:37;;;;;;;9.50;3.30;;;18.50;99.90;;;;;;5075081;28;20044;-78
2023/09/22 04:15:08;;;;;;;7.10;2.85;;;18.60;99.90;;;;;;5082052;28;20121;-78
2023/09/22 04:17:36;;;;;;;9.05;3.70;;;18.60;99.90;;;;;;5078475;28;20449;-78
2023/09/22 04:20:08;;;;;;;5.50;3.17;;;18.60;99.90;;;;;;5091195;27;20098;-78
2023/09/22 04:22:36;;;;;;;10.93;4.22;;;18.60;99.90;;;;;;5066102;28;20045;-79
2023/09/22 04:25:08;;;;;;;8.20;3.72;;;18.60;99.90;;;;;;5074000;28;20129;-78
2023/09/22 04:27:42;;;;;;;8.43;4.10;;;18.60;99.90;;;;;;5074790;28;22683;-77
2023/09/22 04:30:15;;;;;;;11.23;3.45;;;18.60;99.90;;;;;;5086467;28;20106;-78
2023/09/22 04:32:44;;;;;;;7.93;3.25;;;18.60;99.90;;;;;;5069092;28;20121;-78
2023/09/22 04:35:12;;;;;;;8.65;3.65;;;18.60;99.90;;;;;;5093144;28;20048;-78
2023/09/22 04:37:40;;;;;;;8.07;3.85;;;18.60;99.90;;;;;;5089854;28;20059;-78
2023/09/22 04:40:23;;;;;;;8.27;3.55;;;18.60;99.90;;;;;;5089889;28;20057;-78
2023/09/22 04:42:51;;;;;;;6.70;2.83;;;18.60;99.90;;;;;;5062064;28;20168;-78
2023/09/22 04:45:19;;;;;;;10.95;3.53;;;18.60;99.90;;;;;;5079338;28;20052;-79
2023/09/22 04:47:47;;;;;;;9.38;2.83;;;18.70;99.90;;;;;;5071677;28;20064;-79
2023/09/22 04:50:18;;;;;;;7.38;3.38;;;18.70;99.90;;;;;;5079996;28;20040;-78
2023/09/22 04:52:45;;;;;;;8.63;3.30;;;18.70;99.90;;;;;;5070213;28;20056;-79
2023/09/22 04:55:13;;;;;;;9.48;3.92;;;18.70;99.90;;;;;;5071350;28;20067;-78
2023/09/22 04:57:40;;;;;;;9.63;3.40;;;18.70;99.90;;;;;;5078794;28;20120;-78
2023/09/22 05:00:09;;;;;;;6.47;2.88;;;18.70;99.90;;;;;;5071694;28;20045;-78
2023/09/22 05:02:36;;;;;;;9.55;4.05;;;18.70;99.90;;;;;;5073412;28;20067;-78
2023/09/22 05:05:04;;;;;;;8.70;3.45;;;18.70;99.90;;;;;;5057315;28;20102;-78
2023/09/22 05:07:31;;;;;;;7.25;3.38;;;18.70;99.90;;;;;;5080047;28;20135;-78
2023/09/22 05:09:59;;;;;;;9.13;3.97;;;18.80;99.90;;;;;;5076176;28;20052;-78
2023/09/22 05:12:26;;;;;;;10.90;4.20;;;18.80;99.90;;;;;;5072372;28;20048;-80
2023/09/22 05:14:55;;;;;;;12.23;3.30;;;18.80;99.90;;;;;;5079700;28;20048;-79
2023/09/22 05:17:22;;;;;;;7.78;3.47;;;18.90;99.90;;;;;;5090451;28;20052;-79
2023/09/22 05:19:49;;;;;;;5.82;2.90;;;18.80;99.90;;;;;;5073028;28;20048;-80
2023/09/22 05:22:20;;;;;;;12.20;3.83;;;18.90;99.90;;;;;;5076762;28;20076;-80
2023/09/22 05:24:48;;;;;;;7.00;3.63;;;18.90;99.90;;;;;;5064146;28;20068;-80
2023/09/22 05:27:15;;;;;;;8.60;3.70;;;18.90;99.90;;;;;;5072789;28;22362;-80
2023/09/22 05:29:43;;;;;;;7.15;3.00;;;19.00;99.90;;;;;;5070341;28;20057;-80
2023/09/22 05:32:10;;;;;;;7.95;3.28;;;19.00;99.90;;;;;;5090191;27;20053;-79
2023/09/22 05:34:39;;;;;;;9.68;3.25;;;19.00;99.90;;;;;;5075708;28;20150;-80
2023/09/22 05:37:06;;;;;;;9.32;3.28;;;19.10;99.90;;;;;;5087198;28;20051;-80
2023/09/22 05:39:34;;;;;;;7.97;3.35;;;19.10;99.90;;;;;;5063983;28;20048;-81
2023/09/22 05:42:01;;;;;;;6.00;2.95;;;19.10;99.90;;;;;;5075520;28;20040;-80
2023/09/22 05:44:29;;;;;;;8.43;3.55;;;19.10;99.90;;;;;;5096205;28;22567;-80
2023/09/22 05:46:57;;;;;;;8.77;4.22;;;19.20;99.90;;;;;;5079128;28;20083;-80
2023/09/22 05:49:27;;;;;;;9.65;3.28;;;19.20;99.90;;;;;;5073063;28;20047;-80
2023/09/22 05:51:55;;;;;;;9.35;3.50;;;19.20;99.90;;;;;;5074714;28;20128;-79
2023/09/22 05:54:22;;;;;;;6.90;3.33;;;19.20;99.90;;;;;;5071235;28;20510;-79
2023/09/22 05:56:49;;;;;;;9.82;3.65;;;19.20;99.90;;;;;;5058433;28;20099;-79
2023/09/22 05:59:16;;;;;;;8.45;3.95;;;19.20;99.90;;;;;;5072881;28;20052;-80
2023/09/22 06:01:43;;;;;;;8.02;3.38;;;19.30;99.90;;;;;;5061669;28;20048;-79
2023/09/22 06:04:11;;;;;;;8.40;3.88;;;19.30;99.90;;;;;;5078277;28;20075;-79
2023/09/22 06:06:38;;;;;;;7.07;3.60;;;19.30;99.90;;;;;;5072836;28;20559;-80
2023/09/22 06:09:11;;;;;;;12.50;4.18;;;19.30;99.90;;;;;;5082659;28;20045;-80
2023/09/22 06:11:38;;;;;;;5.25;3.38;;;19.30;99.90;;;;;;5070671;28;20125;-79
2023/09/22 06:14:06;;;;;;;6.80;3.25;;;19.40;99.90;;;;;;5077354;28;20133;-79
2023/09/22 06:16:33;;;;;;;9.73;3.95;;;19.50;99.90;;;;;;5077277;28;20067;-79
2023/09/22 06:19:00;;;;;;;7.22;3.40;;;19.50;99.90;;;;;;5071090;28;20048;-80
2023/09/22 06:21:30;;;;;;;15.50;3.63;;;19.50;99.90;;;;;;5072482;28;22108;-79
2023/09/22 06:23:57;;;;;;;6.50;3.10;;;19.50;99.90;;;;;;5072666;28;20040;-80
2023/09/22 06:26:24;;;;;;;6.55;3.55;;;19.50;99.90;;;;;;5073091;28;20129;-80
2023/09/22 06:28:51;;;;;;;6.75;2.97;;;19.60;99.90;;;;;;5082844;28;20044;-80
2023/09/22 06:31:18;;;;;;;8.30;3.42;;;19.60;99.90;;;;;;5089738;28;20446;-80
2023/09/22 06:33:46;;;;;;;12.93;3.90;;;19.70;99.90;;;;;;5071394;28;20377;-80
2023/09/22 06:36:15;;;;;;;7.13;2.95;;;19.70;99.90;;;;;;5066700;28;20051;-79
2023/09/22 06:38:42;;;;;;;6.78;3.35;;;19.80;99.90;;;;;;5091947;28;20036;-80
2023/09/22 06:41:17;;;;;;;4.80;2.40;;;20.00;99.90;;;;;;5067016;28;20068;-82
2023/09/22 06:43:45;;;;;;;7.32;2.88;;;20.20;99.90;;;;;;5086542;28;20168;-79
2023/09/22 06:46:25;;;;;;;9.15;3.15;;;20.30;99.90;;;;;;5062742;28;20052;-79
2023/09/22 06:48:53;;;;;;;8.18;3.08;;;20.30;99.90;;;;;;5078059;28;20503;-80
2023/09/22 06:51:20;;;;;;;9.30;2.92;;;20.40;99.90;;;;;;5075512;28;22417;-79
2023/09/22 06:53:47;;;;;;;8.52;3.38;;;20.50;99.90;;;;;;5097750;28;20044;-80
2023/09/22 06:56:18;;;;;;;9.32;3.50;;;20.40;99.90;;;;;;5071275;28;20042;-79
2023/09/22 06:58:47;;;;;;;9.15;3.55;;;20.40;99.90;;;;;;5084584;28;20040;-81
2023/09/22 07:01:17;;;;;;;11.73;3.30;;;20.30;99.90;;;;;;5072872;28;20060;-82
2023/09/22 07:03:45;;;;;;;6.88;2.90;;;20.40;99.90;;;;;;5067710;28;20048;-81
2023/09/22 07:06:15;;;;;;;10.38;3.58;;;20.40;99.90;;;;;;5073967;28;20050;-81
2023/09/22 07:08:45;;;;;;;9.95;3.13;;;20.40;99.90;;;;;;5069177;28;20062;-81
2023/09/22 07:11:14;;;;;;;11.25;3.67;;;20.50;99.90;;;;;;5061900;28;20056;-79
2023/09/22 07:13:41;;;;;;;10.38;3.92;;;20.60;99.90;;;;;;5073189;28;20063;-79
2023/09/22 07:16:10;;;;;;;11.40;3.53;;;20.70;99.90;;;;;;5089651;27;20473;-79
2023/09/22 07:18:38;;;;;;;11.00;3.10;;;21.10;99.90;;;;;;5073076;28;20044;-79
2023/09/22 07:21:09;;;;;;;7.72;2.75;;;21.70;99.90;;;;;;5066532;28;20044;-81
2023/09/22 07:23:37;;;;;;;11.38;3.30;;;21.80;99.90;;;;;;5090088;27;20047;-79
2023/09/22 07:26:11;;;;;;;14.07;4.05;;;21.70;99.90;;;;;;5087899;28;20040;-80
2023/09/22 07:28:39;;;;;;;12.02;3.13;;;21.50;99.90;;;;;;5081734;28;20131;-81
2023/09/22 07:31:15;;;;;;;7.45;2.90;;;21.30;99.90;;;;;;5064375;28;20060;-80
2023/09/22 07:33:43;;;;;;;6.63;2.55;;;21.30;99.90;;;;;;5070375;28;20062;-80
2023/09/22 07:36:12;;;;;;;8.15;2.72;;;21.20;99.90;;;;;;5095454;27;20048;-79
2023/09/22 07:38:39;;;;;;;9.32;3.05;;;21.20;99.90;;;;;;5062616;28;20143;-80
2023/09/22 07:41:06;;;;;;;9.32;3.03;;;21.30;99.90;;;;;;5076305;28;20043;-79
2023/09/22 07:43:35;;;;;;;7.20;2.15;;;21.30;99.90;;;;;;5072529;28;20098;-80
2023/09/22 07:46:06;;;;;;;6.80;2.60;;;21.40;99.90;;;;;;5072839;28;21099;-80
2023/09/22 07:48:35;;;;;;;8.50;2.45;;;21.50;99.90;;;;;;5082398;28;20056;-81
2023/09/22 07:51:02;;;;;;;7.93;2.67;;;21.60;99.90;;;;;;5068218;28;20048;-81
2023/09/22 07:53:30;;;;;;;7.20;2.97;;;21.60;99.90;;;;;;5073809;28;20068;-79
2023/09/22 07:55:59;;;;;;;7.15;2.78;;;21.70;99.90;;;;;;5075815;28;20138;-80
2023/09/22 07:58:30;;;;;;;9.63;2.75;;;21.70;99.90;;;;;;5058065;28;20117;-81
2023/09/22 08:00:59;;;;;;;8.93;2.80;;;21.70;99.90;;;;;;5085776;28;20059;-79
2023/09/22 08:03:27;;;;;;;7.45;2.72;;;21.80;99.90;;;;;;5079883;28;20048;-80
2023/09/22 08:05:55;;;;;;;11.00;3.00;;;21.80;99.90;;;;;;5078053;28;20566;-80
2023/09/22 08:08:24;;;;;;;8.43;2.80;;;21.80;99.90;;;;;;5089369;28;20044;-79
2023/09/22 08:10:53;;;;;;;11.02;2.83;;;21.80;99.90;;;;;;5072269;28;20055;-80
2023/09/22 08:13:21;;;;;;;5.88;2.33;;;21.80;99.90;;;;;;5077163;28;20052;-78
2023/09/22 08:15:51;;;;;;;8.23;2.55;;;21.90;99.90;;;;;;5072423;28;20048;-80
2023/09/22 08:18:18;;;;;;;8.40;2.30;;;22.00;99.90;;;;;;5065882;28;20044;-81
2023/09/22 08:20:45;;;;;;;10.93;3.40;;;22.00;99.90;;;;;;5075070;28;20190;-80
2023/09/22 08:23:13;;;;;;;10.98;3.13;;;22.10;99.90;;;;;;5079375;28;20048;-82
2023/09/22 08:25:43;;;;;;;12.50;3.63;;;22.20;99.90;;;;;;5073288;28;22475;-79
2023/09/22 08:28:14;;;;;;;8.52;2.45;;;22.30;99.90;;;;;;5080828;28;20100;-82
2023/09/22 08:30:41;;;;;;;12.43;2.63;;;22.40;99.90;;;;;;5077700;28;22472;-79
2023/09/22 08:33:09;;;;;;;12.93;2.95;;;22.50;99.90;;;;;;5087194;28;20067;-78
2023/09/22 08:35:37;;;;;;;11.65;2.55;;;22.50;99.90;;;;;;5059673;28;20587;-82
2023/09/22 08:38:24;;;;;;;11.25;3.13;;;22.50;99.90;;;;;;5076318;28;20056;-80
2023/09/22 08:40:52;;;;;;;13.07;3.20;;;22.60;99.90;;;;;;5073561;28;20048;-78
2023/09/22 08:43:21;;;;;;;11.30;2.17;;;22.60;99.90;;;;;;5085328;28;20109;-79
2023/09/22 08:45:49;;;;;;;9.07;2.20;;;22.70;99.90;;;;;;5073385;28;20048;-80
2023/09/22 08:48:16;;;;;;;9.15;2.58;;;22.80;99.90;;;;;;5082781;28;20123;-79
2023/09/22 08:50:45;;;;;;;7.25;2.35;;;22.80;99.90;;;;;;5063625;28;20562;-79
2023/09/22 08:53:12;;;;;;;6.72;2.40;;;22.80;99.90;;;;;;5070858;28;20148;-80
2023/09/22 08:55:39;;;;;;;7.90;2.45;;;22.90;99.50;;;;;;5068648;28;20048;-78
2023/09/22 08:58:07;;;;;;;13.85;2.53;;;23.00;98.90;;;;;;5072387;28;20084;-80
2023/09/22 09:00:34;;;;;;;13.57;3.53;;;23.00;98.90;;;;;;5073732;28;22464;-79
2023/09/22 09:03:09;;;;;;;9.40;2.00;;;23.10;98.20;;;;;;5059519;28;20067;-80
2023/09/22 09:05:40;;;;;;;7.25;2.88;;;23.20;98.50;;;;;;5076945;28;22458;-81
2023/09/22 09:08:12;;;;;;;10.80;2.55;;;23.30;97.70;;;;;;5087411;28;20079;-78
2023/09/22 09:10:44;;;;;;;5.95;2.10;;;23.50;97.60;;;;;;5080922;28;20529;-81
2023/09/22 09:13:17;;;;;;;10.43;2.67;;;23.60;97.60;;;;;;5073727;28;20055;-81
2023/09/22 09:15:54;;;;;;;12.48;2.38;;;23.70;96.60;;;;;;5080769;28;20410;-80
2023/09/22 09:18:24;;;;;;;7.53;2.03;;;23.80;95.70;;;;;;5061986;28;20052;-82
2023/09/22 09:21:15;;;;;;;6.25;2.25;;;23.80;95.40;;;;;;5075255;28;20037;-81
2023/09/22 09:23:56;;;;;;;14.27;2.60;;;24.00;94.50;;;;;;5079007;28;22631;-79
2023/09/22 09:26:32;;;;;;;9.13;2.30;;;24.50;94.20;;;;;;5070222;28;20715;-79
2023/09/22 09:28:59;;;;;;;14.60;3.10;;;24.40;92.80;;;;;;5071714;28;20190;-81
2023/09/22 09:31:47;;;;;;;8.25;1.75;;;24.30;93.40;;;;;;5078941;28;20059;-82
2023/09/22 09:34:16;;;;;;;9.45;2.10;;;24.40;92.70;;;;;;5079529;28;20064;-80
2023/09/22 09:36:44;;;;;;;6.65;2.10;;;24.70;92.60;;;;;;5070999;28;20128;-78
2023/09/22 09:39:12;;;;;;;9.43;2.65;;;25.10;91.90;;;;;;5079144;28;20098;-80
2023/09/22 09:41:42;;;;;;;10.15;2.10;;;25.10;90.90;;;;;;5056938;28;20074;-78
2023/09/22 09:44:10;;;;;;;7.55;2.47;;;24.90;90.70;;;;;;5069507;28;22551;-79
2023/09/22 09:46:42;;;;;;;8.20;2.45;;;25.00;91.10;;;;;;5072781;28;20044;-77
2023/09/22 09:49:13;;;;;;;9.60;1.98;;;25.20;90.50;;;;;;5091388;27;20150;-80
2023/09/22 09:51:46;;;;;;;10.48;2.83;;;25.30;90.30;;;;;;5061035;28;20443;-79
2023/09/22 09:54:18;;;;;;;12.57;2.58;;;25.40;90.20;;;;;;5063559;28;20075;-80
2023/09/22 09:56:46;;;;;;;10.63;1.88;;;25.50;90.00;;;;;;5076527;28;20064;-82
2023/09/22 09:59:14;;;;;;;13.02;2.92;;;25.60;88.20;;;;;;5086659;28;20055;-80
2023/09/22 10:01:42;;;;;;;9.75;2.75;;;25.60;88.50;;;;;;5073226;28;20127;-81
2023/09/22 10:04:11;;;;;;;7.28;1.83;;;25.70;88.40;;;;;;5059322;28;20144;-84
2023/09/22 10:06:39;;;;;;;12.57;2.70;;;25.70;87.90;;;;;;5063603;28;20861;-81
2023/09/22 10:09:18;;;;;;;15.13;2.38;;;25.40;88.40;;;;;;5058838;28;20052;-79
2023/09/22 10:11:48;;;;;;;8.68;1.98;;;25.50;88.80;;;;;;5078559;28;20048;-81
2023/09/22 10:14:46;;;;;;;8.55;2.30;;;25.80;88.60;;;;;;5067157;28;20048;-81
2023/09/22 10:17:22;;;;;;;10.20;2.67;;;25.70;88.30;;;;;;5061960;28;20070;-81
2023/09/22 10:19:50;;;;;;;11.48;2.65;;;25.50;88.10;;;;;;5061487;28;20048;-79
2023/09/22 10:22:17;;;;;;;12.73;2.25;;;25.80;87.10;;;;;;5074714;28;20058;-79
2023/09/22 10:24:44;;;;;;;10.52;2.25;;;25.90;85.90;;;;;;5070670;28;20117;-80
2023/09/22 10:27:22;;;;;;;10.75;2.28;;;26.10;85.00;;;;;;5054613;28;20063;-80
2023/09/22 10:29:52;;;;;;;8.05;1.75;;;26.10;85.50;;;;;;5072465;28;20109;-80
2023/09/22 10:32:21;;;;;;;8.13;1.75;;;26.10;85.70;;;;;;5077187;28;22567;-79
2023/09/22 10:34:56;;;;;;;8.65;2.58;;;26.00;85.50;;;;;;5085075;28;20051;-77
2023/09/22 10:37:28;;;;;;;8.07;2.30;;;25.80;85.20;;;;;;5073960;28;20044;-80
2023/09/22 10:40:16;;;;;;;10.73;1.90;;;25.60;84.30;;;;;;5084350;28;20106;-79
2023/09/22 10:42:51;;;;;;;6.63;1.65;;;25.70;84.50;;;;;;5074877;28;20071;-82
2023/09/22 10:45:25;;;;;;;10.43;2.33;;;25.80;84.70;;;;;;5092302;28;20044;-81
2023/09/22 10:47:53;;;;;;;7.43;2.67;;;26.20;83.60;;;;;;5078350;28;20040;-80
2023/09/22 10:50:26;;;;;;;7.68;2.05;;;26.50;83.30;;;;;;5067139;28;20066;-79
2023/09/22 10:53:03;;;;;;;11.25;2.33;;;26.70;83.50;;;;;;5083732;28;20052;-78
2023/09/22 10:55:38;;;;;;;7.00;1.77;;;26.90;82.20;;;;;;5086839;28;20098;-78
2023/09/22 10:58:08;;;;;;;6.55;2.90;;;26.90;82.20;;;;;;5082214;28;20058;-79
2023/09/22 11:00:40;;;;;;;10.52;1.90;;;26.90;83.10;;;;;;5083450;28;20412;-79
2023/09/22 11:03:12;;;;;;;11.52;2.47;;;26.90;80.60;;;;;;5049639;28;20072;-79
2023/09/22 11:05:41;;;;;;;7.60;1.50;;;26.70;81.10;;;;;;5066456;28;20044;-80
2023/09/22 11:08:16;;;;;;;8.38;1.80;;;26.50;80.50;;;;;;5079034;28;20134;-78
2023/09/22 11:10:48;;;;;;;9.55;1.48;;;26.50;81.00;;;;;;5068037;28;20072;-79
2023/09/22 11:13:18;;;;;;;12.43;2.13;;;26.50;80.70;;;;;;5052336;28;20048;-79
2023/09/22 11:15:56;;;;;;;4.03;1.52;;;26.40;81.10;;;;;;5067711;28;20127;-79
2023/09/22 11:18:34;;;;;;;9.63;2.45;;;26.30;81.80;;;;;;5054738;28;20052;-82
2023/09/22 11:21:10;;;;;;;6.70;1.67;;;26.40;81.90;;;;;;5067425;28;20641;-79
2023/09/22 11:23:39;;;;;;;10.73;2.35;;;26.40;79.90;;;;;;5069086;28;20063;-81
2023/09/22 11:26:12;;;;;;;11.57;2.05;;;26.50;79.50;;;;;;5058963;28;20143;-81
2023/09/22 11:28:44;;;;;;;8.48;1.70;;;26.40;79.40;;;;;;5083183;28;20052;-80
2023/09/22 11:31:16;;;;;;;6.57;1.33;;;26.60;80.10;;;;;;5082781;28;20121;-79
2023/09/22 11:33:44;;;;;;;;;;;26.80;80.60;;;;;;5065907;28;20063;-79
2023/09/22 11:36:12;;;;;;;11.10;1.80;;;26.90;79.80;;;;;;5092387;28;19967;-79
2023/09/22 11:38:40;;;;;;;7.10;1.90;;;26.90;78.80;;;;;;5077868;28;20117;-79
2023/09/22 11:41:15;;;;;;;8.90;1.85;;;26.90;78.70;;;;;;5078426;28;20044;-81
2023/09/22 11:43:46;;;;;;;8.35;1.92;;;26.90;77.80;;;;;;5077246;28;20771;-81
2023/09/22 11:46:36;;;;;;;10.97;1.73;;;26.70;77.70;;;;;;5078098;28;20524;-79
2023/09/22 11:49:05;;;;;;;10.00;1.50;;;26.70;78.10;;;;;;5082474;28;20284;-80
2023/09/22 11:51:50;;;;;;;11.55;2.35;;;26.60;78.00;;;;;;5082093;28;20642;-80
2023/09/22 11:54:25;;;;;;;7.40;1.55;;;26.70;77.50;;;;;;5094288;27;20044;-80
2023/09/22 11:56:54;;;;;;;8.82;1.95;;;26.80;76.70;;;;;;5089479;27;20131;-80
2023/09/22 11:59:27;;;;;;;7.40;2.03;;;26.70;76.60;;;;;;5073813;28;20087;-80
2023/09/22 12:01:55;;;;;;;10.05;2.17;;;26.80;76.40;;;;;;5048687;28;20044;-80
2023/09/22 12:04:23;;;;;;;6.68;1.63;;;26.80;76.70;;;;;;5055466;28;20045;-78
2023/09/22 12:06:51;;;;;;;8.27;2.60;;;26.90;76.80;;;;;;5070325;28;20071;-79
2023/09/22 12:09:20;;;;;;;6.53;1.42;;;26.90;76.40;;;;;;5073976;28;20040;-81
2023/09/22 12:11:48;;;;;;;9.63;2.15;;;26.90;76.50;;;;;;5077774;28;20115;-81
2023/09/22 12:14:16;;;;;;;6.85;1.58;;;26.80;76.60;;;;;;5071384;28;20102;-78
2023/09/22 12:16:44;;;;;;;5.20;1.65;;;26.80;76.30;;;;;;5081985;28;20040;-79
2023/09/22 12:19:14;;;;;;;9.88;2.20;;;26.80;76.70;;;;;;5076097;28;20072;-78
2023/09/22 12:21:41;;;;;;;9.88;2.08;;;26.80;76.10;;;;;;5064643;28;20058;-80
2023/09/22 12:24:09;;;;;;;5.78;1.52;;;26.70;75.70;;;;;;5065149;28;20161;-78
2023/09/22 12:26:36;;;;;;;9.85;2.00;;;26.70;76.80;;;;;;5071402;28;20068;-78
2023/09/22 12:29:05;;;;;;;10.35;1.77;;;26.80;76.20;;;;;;5091256;28;20041;-81
2023/09/22 12:31:34;;;;;;;12.32;1.88;;;26.90;76.40;;;;;;5061414;28;20144;-79
2023/09/22 12:34:02;;;;;;;7.82;1.63;;;27.00;75.60;;;;;;5089538;28;20572;-78
2023/09/22 12:36:29;;;;;;;5.75;1.80;;;27.10;76.10;;;;;;5082267;28;20058;-81
2023/09/22 12:38:58;;;;;;;11.15;2.38;;;27.30;75.40;;;;;;5073586;28;22575;-78
2023/09/22 12:41:29;;;;;;;6.75;1.73;;;27.20;75.90;;;;;;5072706;28;20055;-80
2023/09/22 12:43:56;;;;;;;8.32;2.20;;;27.20;76.00;;;;;;5072064;28;20041;-78
2023/09/22 12:46:23;;;;;;;9.25;2.70;;;27.20;77.30;;;;;;5078504;28;20139;-78
2023/09/22 12:48:51;;;;;;;10.30;2.38;;;27.10;77.50;;;;;;5063797;28;20179;-79
2023/09/22 12:51:19;;;;;;;8.05;2.20;;;27.00;77.80;;;;;;5076682;28;20195;-82
2023/09/22 12:53:47;;;;;;;9.85;3.00;;;26.90;77.10;;;;;;5056730;28;20788;-78
2023/09/22 12:56:14;;;;;;;13.02;2.83;;;26.80;77.80;;;;;;5074453;28;20503;-78